Flight Track Log - Related Links

Times and Time Zones

All times are in EDT time to prevent confusion due to time zone crossing. See the THY2467 flight status page for this flight to view local times or setup timezone preferences in your user account.

Time Position Orientation Groundspeed Altitude Reporting Facility
EDT Latitude Longitude Course Direction KTS MPH feet Rate Location/Type
Thu 12:09:00 PM 37.3503 34.7363 311° West  Level Estimated
Thu 12:10:00 PM 37.4027 34.6582 310° West  Level Estimated
Thu 12:11:00 PM 37.4551 34.5799 310° West  Level Estimated
Thu 12:12:00 PM 37.5074 34.5015 310° West  Level Estimated
Thu 12:13:00 PM 37.5596 34.4231 310° West  Level Estimated
Thu 12:14:00 PM 37.6118 34.3445 310° West  Level Estimated
Thu 12:15:00 PM 37.6639 34.2658 310° West  Level Estimated
Thu 12:16:00 PM 37.7160 34.1869 310° West  Level Estimated
Thu 12:17:00 PM 37.7680 34.1080 310° West  Level Estimated
Thu 12:18:00 PM 37.8200 34.0290 310° West  Level Estimated
Thu 12:19:00 PM 37.8719 33.9498 310° West  Level Estimated
Thu 12:20:00 PM 37.9238 33.8706 310° West  Level Estimated
Thu 12:21:00 PM 37.9756 33.7912 310° West  Level Estimated
Thu 12:22:00 PM 38.0274 33.7117 310° West  Level Estimated
Thu 12:23:00 PM 38.0791 33.6321 310° West  Level Estimated
Thu 12:24:00 PM 38.1308 33.5524 309° West  Level Estimated
Thu 12:25:00 PM 38.1824 33.4726 309° West  Level Estimated
Thu 12:26:00 PM 38.2339 33.3926 309° West  Level Estimated
Thu 12:27:00 PM 38.2854 33.3126 309° West  Level Estimated
Thu 12:28:00 PM 38.3368 33.2324 309° West  Level Estimated
Thu 12:29:00 PM 38.3882 33.1521 309° West  Level Estimated
Thu 12:30:00 PM 38.4396 33.0718 309° West  Level Estimated
Thu 12:31:00 PM 38.4908 32.9913 309° West  Level Estimated
Thu 12:32:00 PM 38.5421 32.9106 309° West  Level Estimated
Thu 12:33:00 PM 38.5932 32.8299 309° West  Level Estimated
Thu 12:34:00 PM 38.6443 32.7491 309° West  Level Estimated
Thu 12:35:00 PM 38.6954 32.6681 309° West  Level Estimated
Thu 12:36:00 PM 38.7464 32.5870 309° West  Level Estimated
Thu 12:37:00 PM 38.7973 32.5058 309° West  Level Estimated
Thu 12:38:00 PM 38.8482 32.4245 309° West  Level Estimated
Thu 12:39:00 PM 38.8991 32.3431 309° West  Level Estimated
Thu 12:40:00 PM 38.9498 32.2615 309° West  Level Estimated
Thu 12:41:00 PM 39.0005 32.1799 309° West  Level Estimated
Thu 12:42:00 PM 39.0512 32.0981 309° West  Level Estimated
Thu 12:43:00 PM 39.1018 32.0162 309° West  Level Estimated
Thu 12:44:00 PM 39.1524 31.9342 308° West  Level Estimated
Thu 12:45:00 PM 39.2028 31.8521 308° West  Level Estimated
Thu 12:46:00 PM 39.2533 31.7698 308° West  Level Estimated
Thu 12:47:00 PM 39.3036 31.6874 308° West  Level Estimated
Thu 12:48:00 PM 39.3540 31.6049 308° West  Level Estimated
Thu 12:49:00 PM 39.4042 31.5223 308° West  Level Estimated
Thu 12:50:00 PM 39.4544 31.4396 308° West  Level Estimated
Thu 12:51:00 PM 39.5045 31.3568 308° West  Level Estimated
Thu 12:52:00 PM 39.5546 31.2738 308° West  Level Estimated
Thu 12:53:00 PM 39.6046 31.1907 308° West  Level Estimated
Thu 12:54:00 PM 39.6546 31.1075 308° West  Level Estimated
Thu 12:55:00 PM 39.7045 31.0242 308° West  Level Estimated
Thu 12:56:00 PM 39.7543 30.9408 308° West  Level Estimated
Thu 12:57:00 PM 39.8041 30.8572 308° West  Level Estimated
Thu 12:58:00 PM 39.8538 30.7735 308° West  Level Estimated
Thu 12:59:00 PM 39.9035 30.6897 308° West  Level Estimated
Thu 01:00:00 PM 39.9531 30.6058 308° West  Level Estimated
Thu 01:01:00 PM 40.0026 30.5217 308° West  Level Estimated
Thu 01:02:00 PM 40.0521 30.4376 308° West  Level Estimated
Thu 01:03:00 PM 40.1015 30.3533 307° West  Level Estimated
Thu 01:04:00 PM 40.1509 30.2689 307° West  Level Estimated
Thu 01:05:00 PM 40.2002 30.1843 307° West  Level Estimated
Thu 01:06:00 PM 40.2494 30.0996 307° West  Level Estimated
Thu 01:07:00 PM 40.2986 30.0149 307° West  Level Estimated
Thu 01:08:00 PM 40.3477 29.9300 307° West  Level Estimated
Thu 01:09:00 PM 40.3968 29.8449 307° West  Level Estimated
Thu 01:10:00 PM 40.4458 29.7598 307° West  Level Estimated
Thu 01:11:00 PM 40.4947 29.6745 307° West  Level Estimated
Thu 01:12:00 PM 40.5435 29.5891 307° West  Level Estimated
Thu 01:13:00 PM 40.5923 29.5035 307° West  Level Estimated
Thu 01:14:00 PM 40.6411 29.4179 307° West  Level Estimated
Thu 01:15:00 PM 40.6897 29.3321 307° West  Level Estimated
Thu 01:16:00 PM 40.7383 29.2462 307° West  Level Estimated
Thu 01:17:00 PM 40.7869 29.1602 307° West  Level Estimated
Thu 01:18:00 PM 40.8354 29.0740 307° West  Level Estimated
Thu 01:19:00 PM 40.8838 28.9877 307° West  Level Estimated
Thu 01:20:00 PM 40.9321 28.9013 307° West  Level Estimated
Thu 01:21:00 PM 40.9769 28.8211 306° West  Level Estimated
Thu 01:22:00 PM 40.9769 28.8211 21° North  Level Estimated
Thu 01:23:00 PM 40.9769 28.8211 21° North  Level Estimated
Thu 01:24:00 PM 40.9769 28.8211 21° North  Level Estimated
Thu 01:25:00 PM 40.9769 28.8211 21° North  Level Estimated
Thu 01:26:00 PM 40.9769 28.8211 21° North  Level Estimated
Thu 01:27:00 PM 40.9769 28.8211 21° North  Level Estimated
Thu 01:28:00 PM 40.9769 28.8211 21° North  Level Estimated
Thu 01:29:00 PM 40.9769 28.8211 21° North  Level Estimated
Thu 01:30:00 PM 40.9769 28.8211 21° North  Level Estimated
Thu 01:31:00 PM 40.9769 28.8211 21° North  Level Estimated
Thu 01:32:00 PM 40.9769 28.8211 21° North  Level Estimated
Thu 01:33:00 PM 40.9769 28.8211 21° North  Level Estimated
Thu 01:34:00 PM 40.9769 28.8211 21° North  Level Estimated
Thu 01:35:00 PM 40.9769 28.8211 21° North  Level Estimated
Thu 01:36:00 PM 40.9769 28.8211 21° North  Level Estimated
Thu 01:37:00 PM 40.9769 28.8211 21° North  Level Estimated

Login

Don't have an account? Register now (free) for customized features, flight alerts, and more!